Kolmaarden Stroemsfors, Sweden

7:46 PM CET on February 06, 2016 (GMT +0100)
Krokek | | Change Station
CLOSE
Current Station
Personal Weather Station
Location: Kolmrden, stergtlands ln
Elevation: 161 ft
Nearby Weather Stations

Elev 161 ft 58.67 °N, 16.36 °E | Updated 42 seconds ago

Overcast
Overcast
42.1 °F
Feels Like 42 °F
N
1.1
Wind Variable Wind from SW
Gusts 6.0 mph

Today
High -- | Low -- °F
--% Chance of Precip.
Yesterday
High -- | Low -- °F
Precip. -- in
Pressure 29.62 in
Visibility 6.2 miles
Clouds Mostly Cloudy 1500 ft
Overcast 2400 ft
Windchill 42 °F
Dew Point 38 °F
Humidity 86%
Rainfall 0.05 in
Snow Depth Not available.
7:51 AM 4:26 PM
Waning Crescent, 4% visible
METAR ESSP 061820Z 20008KT 9999 BKN015 OVC024 07/05 Q1003 R27/190195
Pressure 29.62 in
Visibility 6.2 miles
Clouds Mostly Cloudy 1500 ft
Overcast 2400 ft
Windchill 42 °F
Dew Point 38 °F
Humidity 86%
Rainfall 0.05 in
Snow Depth Not available.
7:51 AM 4:26 PM
Waning Crescent, 4% visible
METAR ESSP 061820Z 20008KT 9999 BKN015 OVC024 07/05 Q1003 R27/190195

10-Day Weather Forecast

Almanac

Astronomy

Feb. 06, 2016 Rise Set
Actual Time
Civil Twilight
Nautical Twilight
Astronomical Twilight
Moon
Length of Visible Light
Length of Day
Tomorrow will be .
, % of the Moon is Illuminated

Today's Extremes

Country Highs Country Lows

Community

WunderPhotos

Upload Photos

1,891,033 photos uploaded!

WunderBlog® & News

Nearby

Air Quality

  Air Quality AQ Index Pollutant
Not available.

Snow Depth

Station Depth Elevation

Earthquake Activity

City Distance Mag. Time & Date
Minimum magnitude displayed is 2.5.

Coastal Water Temperatures

Place Temperature

Stations

Nearby Weather Stations

Station Location Temp. Windchill Dew Point Humidity Wind Precip. Elev Updated Type